sensor_id;sensor_type;location;lat;lon;timestamp;temperature;humidity
69731;SHT31;56996;48.138;11.538;2022-08-16T00:01:21;20.59;59.36
69731;SHT31;56996;48.138;11.538;2022-08-16T00:03:52;20.56;59.56
69731;SHT31;56996;48.138;11.538;2022-08-16T00:06:19;20.55;59.67
69731;SHT31;56996;48.138;11.538;2022-08-16T00:08:48;20.54;59.89
69731;SHT31;56996;48.138;11.538;2022-08-16T00:11:17;20.49;60.14
69731;SHT31;56996;48.138;11.538;2022-08-16T00:13:46;20.45;60.23
69731;SHT31;56996;48.138;11.538;2022-08-16T00:16:21;20.44;60.33
69731;SHT31;56996;48.138;11.538;2022-08-16T00:19:11;20.41;60.49
69731;SHT31;56996;48.138;11.538;2022-08-16T00:21:41;20.39;60.50
69731;SHT31;56996;48.138;11.538;2022-08-16T00:24:10;20.38;60.60
69731;SHT31;56996;48.138;11.538;2022-08-16T00:26:39;20.37;60.64
69731;SHT31;56996;48.138;11.538;2022-08-16T00:29:12;20.33;60.78
69731;SHT31;56996;48.138;11.538;2022-08-16T00:31:42;20.29;60.91
69731;SHT31;56996;48.138;11.538;2022-08-16T00:34:30;20.30;60.93
69731;SHT31;56996;48.138;11.538;2022-08-16T00:37:21;20.28;61.13
69731;SHT31;56996;48.138;11.538;2022-08-16T00:40:12;20.26;61.14
69731;SHT31;56996;48.138;11.538;2022-08-16T00:43:10;20.22;61.20
69731;SHT31;56996;48.138;11.538;2022-08-16T00:48:59;20.22;61.24
69731;SHT31;56996;48.138;11.538;2022-08-16T00:51:29;20.21;61.29
69731;SHT31;56996;48.138;11.538;2022-08-16T00:53:56;20.19;61.38
69731;SHT31;56996;48.138;11.538;2022-08-16T00:56:25;20.17;61.41
69731;SHT31;56996;48.138;11.538;2022-08-16T00:59:18;20.18;61.41
69731;SHT31;56996;48.138;11.538;2022-08-16T01:01:49;20.17;61.47
69731;SHT31;56996;48.138;11.538;2022-08-16T01:04:19;20.17;61.46
69731;SHT31;56996;48.138;11.538;2022-08-16T01:06:57;20.18;61.50
69731;SHT31;56996;48.138;11.538;2022-08-16T01:09:29;20.18;61.51
69731;SHT31;56996;48.138;11.538;2022-08-16T01:12:00;20.17;61.52
69731;SHT31;56996;48.138;11.538;2022-08-16T01:14:36;20.16;61.56
69731;SHT31;56996;48.138;11.538;2022-08-16T01:17:12;20.16;61.57
69731;SHT31;56996;48.138;11.538;2022-08-16T01:19:43;20.10;61.63
69731;SHT31;56996;48.138;11.538;2022-08-16T01:25:26;20.09;61.63
69731;SHT31;56996;48.138;11.538;2022-08-16T01:28:01;20.10;61.54
69731;SHT31;56996;48.138;11.538;2022-08-16T01:30:39;20.11;61.49
69731;SHT31;56996;48.138;11.538;2022-08-16T01:33:16;20.11;61.43
69731;SHT31;56996;48.138;11.538;2022-08-16T01:36:03;20.12;61.40
69731;SHT31;56996;48.138;11.538;2022-08-16T01:38:42;20.14;61.36
69731;SHT31;56996;48.138;11.538;2022-08-16T01:41:24;20.14;61.32
69731;SHT31;56996;48.138;11.538;2022-08-16T01:44:07;20.16;61.13
69731;SHT31;56996;48.138;11.538;2022-08-16T01:46:37;20.18;60.90
69731;SHT31;56996;48.138;11.538;2022-08-16T01:49:16;20.20;60.63
69731;SHT31;56996;48.138;11.538;2022-08-16T01:51:52;20.21;60.58
69731;SHT31;56996;48.138;11.538;2022-08-16T01:54:31;20.22;60.50
69731;SHT31;56996;48.138;11.538;2022-08-16T01:57:03;20.21;60.44
69731;SHT31;56996;48.138;11.538;2022-08-16T01:59:31;20.20;60.42
69731;SHT31;56996;48.138;11.538;2022-08-16T02:02:01;20.21;60.36
69731;SHT31;56996;48.138;11.538;2022-08-16T02:04:50;20.23;60.25
69731;SHT31;56996;48.138;11.538;2022-08-16T02:07:21;20.20;60.26
69731;SHT31;56996;48.138;11.538;2022-08-16T02:09:49;20.20;60.26
69731;SHT31;56996;48.138;11.538;2022-08-16T02:12:25;20.22;60.11
69731;SHT31;56996;48.138;11.538;2022-08-16T02:15:16;20.19;60.06
69731;SHT31;56996;48.138;11.538;2022-08-16T02:17:53;20.16;60.10
69731;SHT31;56996;48.138;11.538;2022-08-16T02:20:21;20.10;60.25
69731;SHT31;56996;48.138;11.538;2022-08-16T02:22:53;20.06;60.41
69731;SHT31;56996;48.138;11.538;2022-08-16T02:25:22;20.01;60.52
69731;SHT31;56996;48.138;11.538;2022-08-16T02:28:10;20.00;60.59
69731;SHT31;56996;48.138;11.538;2022-08-16T02:30:42;19.99;60.57
69731;SHT31;56996;48.138;11.538;2022-08-16T02:33:16;19.97;60.63
69731;SHT31;56996;48.138;11.538;2022-08-16T02:35:44;19.97;60.50
69731;SHT31;56996;48.138;11.538;2022-08-16T02:38:22;19.99;60.50
69731;SHT31;56996;48.138;11.538;2022-08-16T02:40:49;19.97;60.53
69731;SHT31;56996;48.138;11.538;2022-08-16T02:43:20;19.96;60.69
69731;SHT31;56996;48.138;11.538;2022-08-16T02:45:54;19.94;60.94
69731;SHT31;56996;48.138;11.538;2022-08-16T02:48:22;19.91;61.12
69731;SHT31;56996;48.138;11.538;2022-08-16T02:50:58;19.88;61.27
69731;SHT31;56996;48.138;11.538;2022-08-16T02:53:41;19.83;61.43
69731;SHT31;56996;48.138;11.538;2022-08-16T02:56:14;19.79;61.60
69731;SHT31;56996;48.138;11.538;2022-08-16T02:58:44;19.73;61.81
69731;SHT31;56996;48.138;11.538;2022-08-16T03:01:14;19.68;61.89
69731;SHT31;56996;48.138;11.538;2022-08-16T03:04:05;19.66;62.01
69731;SHT31;56996;48.138;11.538;2022-08-16T03:06:53;19.63;62.20
69731;SHT31;56996;48.138;11.538;2022-08-16T03:09:45;19.57;62.47
69731;SHT31;56996;48.138;11.538;2022-08-16T03:12:15;19.52;62.79
69731;SHT31;56996;48.138;11.538;2022-08-16T03:14:45;19.49;63.00
69731;SHT31;56996;48.138;11.538;2022-08-16T03:17:14;19.46;63.15
69731;SHT31;56996;48.138;11.538;2022-08-16T03:19:44;19.43;63.33
69731;SHT31;56996;48.138;11.538;2022-08-16T03:22:27;19.38;63.49
69731;SHT31;56996;48.138;11.538;2022-08-16T03:25:02;19.34;63.59
69731;SHT31;56996;48.138;11.538;2022-08-16T03:27:35;19.31;63.66
69731;SHT31;56996;48.138;11.538;2022-08-16T03:30:11;19.26;63.72
69731;SHT31;56996;48.138;11.538;2022-08-16T03:32:55;19.21;63.81
69731;SHT31;56996;48.138;11.538;2022-08-16T03:35:26;19.16;63.78
69731;SHT31;56996;48.138;11.538;2022-08-16T03:38:31;19.08;63.88
69731;SHT31;56996;48.138;11.538;2022-08-16T03:41:05;19.05;63.92
69731;SHT31;56996;48.138;11.538;2022-08-16T03:43:53;19.01;63.97
69731;SHT31;56996;48.138;11.538;2022-08-16T03:46:21;18.96;64.04
69731;SHT31;56996;48.138;11.538;2022-08-16T03:49:09;18.87;64.10
69731;SHT31;56996;48.138;11.538;2022-08-16T03:51:39;18.82;64.18
69731;SHT31;56996;48.138;11.538;2022-08-16T03:54:10;18.81;64.20
69731;SHT31;56996;48.138;11.538;2022-08-16T03:56:39;18.79;64.10
69731;SHT31;56996;48.138;11.538;2022-08-16T03:59:26;18.75;64.15
69731;SHT31;56996;48.138;11.538;2022-08-16T04:01:57;18.71;64.23
69731;SHT31;56996;48.138;11.538;2022-08-16T04:04:28;18.67;64.26
69731;SHT31;56996;48.138;11.538;2022-08-16T04:07:02;18.67;64.30
69731;SHT31;56996;48.138;11.538;2022-08-16T04:09:34;18.66;64.37
69731;SHT31;56996;48.138;11.538;2022-08-16T04:12:04;18.66;64.44
69731;SHT31;56996;48.138;11.538;2022-08-16T04:14:51;18.67;64.51
69731;SHT31;56996;48.138;11.538;2022-08-16T04:17:19;18.65;64.78
69731;SHT31;56996;48.138;11.538;2022-08-16T04:19:49;18.62;65.01
69731;SHT31;56996;48.138;11.538;2022-08-16T04:22:21;18.60;65.18
69731;SHT31;56996;48.138;11.538;2022-08-16T04:24:54;18.60;65.43
69731;SHT31;56996;48.138;11.538;2022-08-16T04:27:28;18.58;65.60
69731;SHT31;56996;48.138;11.538;2022-08-16T04:29:58;18.57;65.79
69731;SHT31;56996;48.138;11.538;2022-08-16T04:32:31;18.54;66.00
69731;SHT31;56996;48.138;11.538;2022-08-16T04:35:01;18.53;66.24
69731;SHT31;56996;48.138;11.538;2022-08-16T04:37:35;18.53;66.38
69731;SHT31;56996;48.138;11.538;2022-08-16T04:40:28;18.52;66.50
69731;SHT31;56996;48.138;11.538;2022-08-16T04:42:56;18.52;66.50
69731;SHT31;56996;48.138;11.538;2022-08-16T04:45:26;18.54;66.57
69731;SHT31;56996;48.138;11.538;2022-08-16T04:48:12;18.57;66.66
69731;SHT31;56996;48.138;11.538;2022-08-16T04:50:57;18.58;66.77
69731;SHT31;56996;48.138;11.538;2022-08-16T04:53:41;18.57;66.89
69731;SHT31;56996;48.138;11.538;2022-08-16T04:56:07;18.57;67.01
69731;SHT31;56996;48.138;11.538;2022-08-16T04:58:38;18.57;67.02
69731;SHT31;56996;48.138;11.538;2022-08-16T05:01:13;18.57;67.08
69731;SHT31;56996;48.138;11.538;2022-08-16T05:03:41;18.56;67.17
69731;SHT31;56996;48.138;11.538;2022-08-16T05:06:32;18.56;67.27
69731;SHT31;56996;48.138;11.538;2022-08-16T05:09:16;18.58;67.39
69731;SHT31;56996;48.138;11.538;2022-08-16T05:11:48;18.59;67.56
69731;SHT31;56996;48.138;11.538;2022-08-16T05:14:16;18.59;67.67
69731;SHT31;56996;48.138;11.538;2022-08-16T05:17:03;18.59;67.74
69731;SHT31;56996;48.138;11.538;2022-08-16T05:19:30;18.61;67.72
69731;SHT31;56996;48.138;11.538;2022-08-16T05:22:11;18.64;67.72
69731;SHT31;56996;48.138;11.538;2022-08-16T05:24:47;18.65;67.71
69731;SHT31;56996;48.138;11.538;2022-08-16T05:27:20;18.69;67.70
69731;SHT31;56996;48.138;11.538;2022-08-16T05:29:47;18.70;67.70
69731;SHT31;56996;48.138;11.538;2022-08-16T05:32:27;18.72;67.72
69731;SHT31;56996;48.138;11.538;2022-08-16T05:35:05;18.76;67.54
69731;SHT31;56996;48.138;11.538;2022-08-16T05:37:37;18.80;67.49
69731;SHT31;56996;48.138;11.538;2022-08-16T05:40:07;18.81;67.50
69731;SHT31;56996;48.138;11.538;2022-08-16T05:42:38;18.87;67.40
69731;SHT31;56996;48.138;11.538;2022-08-16T05:45:11;18.94;67.18
69731;SHT31;56996;48.138;11.538;2022-08-16T05:47:47;19.01;66.95
69731;SHT31;56996;48.138;11.538;2022-08-16T05:50:26;19.06;66.78
69731;SHT31;56996;48.138;11.538;2022-08-16T05:53:00;19.14;66.33
69731;SHT31;56996;48.138;11.538;2022-08-16T05:55:27;19.21;65.94
69731;SHT31;56996;48.138;11.538;2022-08-16T05:57:55;19.32;65.68
69731;SHT31;56996;48.138;11.538;2022-08-16T06:00:22;19.90;64.71
69731;SHT31;56996;48.138;11.538;2022-08-16T06:02:51;21.75;61.06
69731;SHT31;56996;48.138;11.538;2022-08-16T06:05:37;23.72;56.62
69731;SHT31;56996;48.138;11.538;2022-08-16T06:08:07;25.40;53.12
69731;SHT31;56996;48.138;11.538;2022-08-16T06:10:54;27.01;49.81
69731;SHT31;56996;48.138;11.538;2022-08-16T06:13:36;28.26;47.05
69731;SHT31;56996;48.138;11.538;2022-08-16T06:16:10;29.40;45.04
69731;SHT31;56996;48.138;11.538;2022-08-16T06:18:45;30.44;42.91
69731;SHT31;56996;48.138;11.538;2022-08-16T06:21:13;31.27;41.16
69731;SHT31;56996;48.138;11.538;2022-08-16T06:23:49;32.17;39.42
69731;SHT31;56996;48.138;11.538;2022-08-16T06:26:20;33.10;37.78
69731;SHT31;56996;48.138;11.538;2022-08-16T06:28:48;33.96;36.29
69731;SHT31;56996;48.138;11.538;2022-08-16T06:31:25;34.60;34.81
69731;SHT31;56996;48.138;11.538;2022-08-16T06:33:53;35.17;33.80
69731;SHT31;56996;48.138;11.538;2022-08-16T06:36:21;35.62;32.65
69731;SHT31;56996;48.138;11.538;2022-08-16T06:39:02;35.18;31.00
69731;SHT31;56996;48.138;11.538;2022-08-16T06:41:53;35.18;31.13
69731;SHT31;56996;48.138;11.538;2022-08-16T06:44:39;34.86;31.58
69731;SHT31;56996;48.138;11.538;2022-08-16T06:47:17;35.66;30.69
69731;SHT31;56996;48.138;11.538;2022-08-16T06:49:46;36.47;29.68
69731;SHT31;56996;48.138;11.538;2022-08-16T06:52:22;36.85;29.27
69731;SHT31;56996;48.138;11.538;2022-08-16T06:55:10;37.61;28.39
69731;SHT31;56996;48.138;11.538;2022-08-16T07:01:14;38.64;26.88
69731;SHT31;56996;48.138;11.538;2022-08-16T07:03:45;39.15;26.31
69731;SHT31;56996;48.138;11.538;2022-08-16T07:06:26;39.42;25.48
69731;SHT31;56996;48.138;11.538;2022-08-16T07:08:56;39.05;25.88
69731;SHT31;56996;48.138;11.538;2022-08-16T07:11:25;39.14;25.66
69731;SHT31;56996;48.138;11.538;2022-08-16T07:14:12;38.30;25.68
69731;SHT31;56996;48.138;11.538;2022-08-16T07:16:51;36.57;26.96
69731;SHT31;56996;48.138;11.538;2022-08-16T07:19:18;35.22;28.16
69731;SHT31;56996;48.138;11.538;2022-08-16T07:21:45;34.12;29.34
69731;SHT31;56996;48.138;11.538;2022-08-16T07:24:25;33.03;29.83
69731;SHT31;56996;48.138;11.538;2022-08-16T07:27:02;31.90;31.16
69731;SHT31;56996;48.138;11.538;2022-08-16T07:29:37;31.29;31.82
69731;SHT31;56996;48.138;11.538;2022-08-16T07:38:27;29.45;33.83
69731;SHT31;56996;48.138;11.538;2022-08-16T07:41:00;29.13;34.16
69731;SHT31;56996;48.138;11.538;2022-08-16T07:43:36;28.80;34.52
69731;SHT31;56996;48.138;11.538;2022-08-16T07:46:07;28.46;34.70
69731;SHT31;56996;48.138;11.538;2022-08-16T07:48:56;28.05;35.01
69731;SHT31;56996;48.138;11.538;2022-08-16T07:51:31;27.84;35.49
69731;SHT31;56996;48.138;11.538;2022-08-16T07:59:12;29.57;33.61
69731;SHT31;56996;48.138;11.538;2022-08-16T08:05:19;32.89;30.16
69731;SHT31;56996;48.138;11.538;2022-08-16T08:08:02;34.19;28.76
69731;SHT31;56996;48.138;11.538;2022-08-16T08:10:50;35.16;27.65
69731;SHT31;56996;48.138;11.538;2022-08-16T08:13:17;36.00;26.74
69731;SHT31;56996;48.138;11.538;2022-08-16T08:16:04;36.55;26.09
69731;SHT31;56996;48.138;11.538;2022-08-16T08:18:31;36.61;24.78
69731;SHT31;56996;48.138;11.538;2022-08-16T08:20:59;36.78;25.53
69731;SHT31;56996;48.138;11.538;2022-08-16T08:23:29;37.57;24.85
69731;SHT31;56996;48.138;11.538;2022-08-16T08:25:56;38.12;24.26
69731;SHT31;56996;48.138;11.538;2022-08-16T08:28:25;38.59;23.38
69731;SHT31;56996;48.138;11.538;2022-08-16T08:30:58;38.10;22.18
69731;SHT31;56996;48.138;11.538;2022-08-16T08:33:32;37.41;23.39
69731;SHT31;56996;48.138;11.538;2022-08-16T08:36:02;37.85;23.44
69731;SHT31;56996;48.138;11.538;2022-08-16T08:38:35;38.70;23.06
69731;SHT31;56996;48.138;11.538;2022-08-16T08:41:11;39.62;22.36
69731;SHT31;56996;48.138;11.538;2022-08-16T08:43:44;40.21;21.79
69731;SHT31;56996;48.138;11.538;2022-08-16T08:46:17;40.83;21.47
69731;SHT31;56996;48.138;11.538;2022-08-16T08:48:48;41.75;20.97
69731;SHT31;56996;48.138;11.538;2022-08-16T08:51:30;42.43;20.14
69731;SHT31;56996;48.138;11.538;2022-08-16T08:54:03;42.42;19.40
69731;SHT31;56996;48.138;11.538;2022-08-16T08:56:32;41.72;19.88
69731;SHT31;56996;48.138;11.538;2022-08-16T08:59:15;41.87;19.98
69731;SHT31;56996;48.138;11.538;2022-08-16T09:01:48;42.38;19.62
69731;SHT31;56996;48.138;11.538;2022-08-16T09:04:25;42.49;18.89
69731;SHT31;56996;48.138;11.538;2022-08-16T09:06:54;41.72;18.70
69731;SHT31;56996;48.138;11.538;2022-08-16T09:09:25;40.76;19.76
69731;SHT31;56996;48.138;11.538;2022-08-16T09:12:03;41.27;19.75
69731;SHT31;56996;48.138;11.538;2022-08-16T09:14:59;42.20;19.27
69731;SHT31;56996;48.138;11.538;2022-08-16T09:20:23;41.67;18.42
69731;SHT31;56996;48.138;11.538;2022-08-16T09:22:52;41.43;19.45
69731;SHT31;56996;48.138;11.538;2022-08-16T09:25:27;42.33;18.81
69731;SHT31;56996;48.138;11.538;2022-08-16T09:28:06;43.09;18.36
69731;SHT31;56996;48.138;11.538;2022-08-16T09:30:36;43.60;18.28
69731;SHT31;56996;48.138;11.538;2022-08-16T09:33:10;44.11;17.56
69731;SHT31;56996;48.138;11.538;2022-08-16T09:35:46;44.35;17.55
69731;SHT31;56996;48.138;11.538;2022-08-16T09:38:19;44.91;17.30
69731;SHT31;56996;48.138;11.538;2022-08-16T09:40:58;44.61;15.89
69731;SHT31;56996;48.138;11.538;2022-08-16T09:43:28;42.88;16.52
69731;SHT31;56996;48.138;11.538;2022-08-16T09:46:15;41.25;17.49
69731;SHT31;56996;48.138;11.538;2022-08-16T09:49:02;39.94;18.48
69731;SHT31;56996;48.138;11.538;2022-08-16T09:51:29;38.79;19.47
69731;SHT31;56996;48.138;11.538;2022-08-16T09:54:03;38.76;19.81
69731;SHT31;56996;48.138;11.538;2022-08-16T09:56:35;39.08;19.86
69731;SHT31;56996;48.138;11.538;2022-08-16T09:59:19;39.18;19.80
69731;SHT31;56996;48.138;11.538;2022-08-16T10:01:48;39.31;19.89
69731;SHT31;56996;48.138;11.538;2022-08-16T10:04:17;38.83;19.80
69731;SHT31;56996;48.138;11.538;2022-08-16T10:07:00;37.57;20.93
69731;SHT31;56996;48.138;11.538;2022-08-16T10:09:37;36.46;21.97
69731;SHT31;56996;48.138;11.538;2022-08-16T10:12:27;35.85;22.56
69731;SHT31;56996;48.138;11.538;2022-08-16T10:15:22;35.60;22.77
69731;SHT31;56996;48.138;11.538;2022-08-16T10:17:55;34.96;23.46
69731;SHT31;56996;48.138;11.538;2022-08-16T10:20:27;34.46;23.93
69731;SHT31;56996;48.138;11.538;2022-08-16T10:23:03;34.41;23.97
69731;SHT31;56996;48.138;11.538;2022-08-16T10:25:36;33.90;24.48
69731;SHT31;56996;48.138;11.538;2022-08-16T10:28:26;33.26;24.86
69731;SHT31;56996;48.138;11.538;2022-08-16T10:31:06;33.36;24.85
69731;SHT31;56996;48.138;11.538;2022-08-16T10:33:42;33.21;25.20
69731;SHT31;56996;48.138;11.538;2022-08-16T10:36:11;32.83;25.47
69731;SHT31;56996;48.138;11.538;2022-08-16T10:38:58;32.73;25.85
69731;SHT31;56996;48.138;11.538;2022-08-16T10:41:25;32.37;26.10
69731;SHT31;56996;48.138;11.538;2022-08-16T10:43:54;32.33;26.04
69731;SHT31;56996;48.138;11.538;2022-08-16T10:46:21;32.31;26.08
69731;SHT31;56996;48.138;11.538;2022-08-16T10:49:09;31.80;26.62
69731;SHT31;56996;48.138;11.538;2022-08-16T10:51:42;31.85;26.58
69731;SHT31;56996;48.138;11.538;2022-08-16T10:54:29;32.07;26.40
69731;SHT31;56996;48.138;11.538;2022-08-16T10:56:58;32.33;26.21
69731;SHT31;56996;48.138;11.538;2022-08-16T10:59:30;32.36;26.04
69731;SHT31;56996;48.138;11.538;2022-08-16T11:02:18;32.49;25.84
69731;SHT31;56996;48.138;11.538;2022-08-16T11:05:08;32.31;25.99
69731;SHT31;56996;48.138;11.538;2022-08-16T11:07:40;31.90;26.22
69731;SHT31;56996;48.138;11.538;2022-08-16T11:10:21;31.75;26.26
69731;SHT31;56996;48.138;11.538;2022-08-16T11:13:21;31.77;26.07
69731;SHT31;56996;48.138;11.538;2022-08-16T11:16:12;31.84;26.11
69731;SHT31;56996;48.138;11.538;2022-08-16T11:18:59;32.00;25.96
69731;SHT31;56996;48.138;11.538;2022-08-16T11:21:38;32.15;25.77
69731;SHT31;56996;48.138;11.538;2022-08-16T11:24:28;32.24;25.59
69731;SHT31;56996;48.138;11.538;2022-08-16T11:27:10;32.04;25.73
69731;SHT31;56996;48.138;11.538;2022-08-16T11:29:46;32.07;25.94
69731;SHT31;56996;48.138;11.538;2022-08-16T11:32:17;32.12;25.69
69731;SHT31;56996;48.138;11.538;2022-08-16T11:34:47;32.08;25.45
69731;SHT31;56996;48.138;11.538;2022-08-16T11:37:34;31.97;25.29
69731;SHT31;56996;48.138;11.538;2022-08-16T11:40:25;31.78;25.37
69731;SHT31;56996;48.138;11.538;2022-08-16T11:42:58;31.24;25.63
69731;SHT31;56996;48.138;11.538;2022-08-16T11:45:30;31.01;25.75
69731;SHT31;56996;48.138;11.538;2022-08-16T11:48:02;30.76;26.09
69731;SHT31;56996;48.138;11.538;2022-08-16T11:50:31;30.73;26.30
69731;SHT31;56996;48.138;11.538;2022-08-16T11:53:00;30.74;26.49
69731;SHT31;56996;48.138;11.538;2022-08-16T11:55:29;30.75;26.42
69731;SHT31;56996;48.138;11.538;2022-08-16T11:57:57;30.80;26.15
69731;SHT31;56996;48.138;11.538;2022-08-16T12:00:26;30.85;26.29
69731;SHT31;56996;48.138;11.538;2022-08-16T12:03:15;30.94;26.19
69731;SHT31;56996;48.138;11.538;2022-08-16T12:05:43;30.91;26.14
69731;SHT31;56996;48.138;11.538;2022-08-16T12:08:17;30.85;26.14
69731;SHT31;56996;48.138;11.538;2022-08-16T12:10:44;30.71;26.23
69731;SHT31;56996;48.138;11.538;2022-08-16T12:13:12;30.42;26.54
69731;SHT31;56996;48.138;11.538;2022-08-16T12:15:40;30.34;26.74
69731;SHT31;56996;48.138;11.538;2022-08-16T12:18:08;30.27;26.78
69731;SHT31;56996;48.138;11.538;2022-08-16T12:20:36;30.25;26.82
69731;SHT31;56996;48.138;11.538;2022-08-16T12:23:11;30.38;26.54
69731;SHT31;56996;48.138;11.538;2022-08-16T12:25:38;30.55;26.44
69731;SHT31;56996;48.138;11.538;2022-08-16T12:28:06;30.73;26.21
69731;SHT31;56996;48.138;11.538;2022-08-16T12:30:36;30.76;25.66
69731;SHT31;56996;48.138;11.538;2022-08-16T12:33:09;30.68;25.76
69731;SHT31;56996;48.138;11.538;2022-08-16T12:35:51;30.63;26.07
69731;SHT31;56996;48.138;11.538;2022-08-16T12:38:17;30.61;26.06
69731;SHT31;56996;48.138;11.538;2022-08-16T12:41:05;30.69;25.89
69731;SHT31;56996;48.138;11.538;2022-08-16T12:43:34;30.74;25.88
69731;SHT31;56996;48.138;11.538;2022-08-16T12:46:10;30.77;25.80
69731;SHT31;56996;48.138;11.538;2022-08-16T12:48:38;30.71;25.65
69731;SHT31;56996;48.138;11.538;2022-08-16T12:51:30;30.59;25.94
69731;SHT31;56996;48.138;11.538;2022-08-16T12:54:25;30.65;25.91
69731;SHT31;56996;48.138;11.538;2022-08-16T12:56:52;30.69;25.82
69731;SHT31;56996;48.138;11.538;2022-08-16T12:59:20;30.77;26.28
69731;SHT31;56996;48.138;11.538;2022-08-16T13:01:49;30.92;25.86
69731;SHT31;56996;48.138;11.538;2022-08-16T13:04:23;31.09;25.60
69731;SHT31;56996;48.138;11.538;2022-08-16T13:06:58;31.21;25.16
69731;SHT31;56996;48.138;11.538;2022-08-16T13:09:28;31.26;25.13
69731;SHT31;56996;48.138;11.538;2022-08-16T13:12:08;31.34;24.79
69731;SHT31;56996;48.138;11.538;2022-08-16T13:14:50;31.22;24.87
69731;SHT31;56996;48.138;11.538;2022-08-16T13:17:20;31.13;25.16
69731;SHT31;56996;48.138;11.538;2022-08-16T13:19:54;31.03;25.26
69731;SHT31;56996;48.138;11.538;2022-08-16T13:22:34;30.98;25.41
69731;SHT31;56996;48.138;11.538;2022-08-16T13:25:21;30.94;25.52
69731;SHT31;56996;48.138;11.538;2022-08-16T13:27:51;31.17;25.48
69731;SHT31;56996;48.138;11.538;2022-08-16T13:30:31;31.42;25.24
69731;SHT31;56996;48.138;11.538;2022-08-16T13:33:09;31.59;25.11
69731;SHT31;56996;48.138;11.538;2022-08-16T13:35:43;31.72;24.84
69731;SHT31;56996;48.138;11.538;2022-08-16T13:38:25;31.80;24.89
69731;SHT31;56996;48.138;11.538;2022-08-16T13:40:58;31.80;24.33
69731;SHT31;56996;48.138;11.538;2022-08-16T13:43:28;31.70;24.47
69731;SHT31;56996;48.138;11.538;2022-08-16T13:45:58;31.69;24.44
69731;SHT31;56996;48.138;11.538;2022-08-16T13:48:30;31.75;24.58
69731;SHT31;56996;48.138;11.538;2022-08-16T13:51:09;31.85;24.13
69731;SHT31;56996;48.138;11.538;2022-08-16T13:53:47;31.78;24.06
69731;SHT31;56996;48.138;11.538;2022-08-16T13:56:28;31.79;24.12
69731;SHT31;56996;48.138;11.538;2022-08-16T13:59:08;31.84;24.06
69731;SHT31;56996;48.138;11.538;2022-08-16T14:01:50;31.69;23.70
69731;SHT31;56996;48.138;11.538;2022-08-16T14:04:31;31.62;23.98
69731;SHT31;56996;48.138;11.538;2022-08-16T14:07:04;31.53;23.89
69731;SHT31;56996;48.138;11.538;2022-08-16T14:09:34;31.35;24.05
69731;SHT31;56996;48.138;11.538;2022-08-16T14:12:03;31.38;24.27
69731;SHT31;56996;48.138;11.538;2022-08-16T14:14:45;31.52;24.19
69731;SHT31;56996;48.138;11.538;2022-08-16T14:17:12;31.62;24.20
69731;SHT31;56996;48.138;11.538;2022-08-16T14:19:41;31.67;23.91
69731;SHT31;56996;48.138;11.538;2022-08-16T14:22:13;31.53;23.75
69731;SHT31;56996;48.138;11.538;2022-08-16T14:25:00;31.59;23.84
69731;SHT31;56996;48.138;11.538;2022-08-16T14:27:28;31.52;23.79
69731;SHT31;56996;48.138;11.538;2022-08-16T14:29:56;31.49;23.98
69731;SHT31;56996;48.138;11.538;2022-08-16T14:32:27;31.60;24.08
69731;SHT31;56996;48.138;11.538;2022-08-16T14:35:13;31.68;23.67
69731;SHT31;56996;48.138;11.538;2022-08-16T14:37:43;31.60;23.69
69731;SHT31;56996;48.138;11.538;2022-08-16T14:40:18;31.57;23.82
69731;SHT31;56996;48.138;11.538;2022-08-16T14:42:46;31.60;23.71
69731;SHT31;56996;48.138;11.538;2022-08-16T14:45:14;31.67;23.77
69731;SHT31;56996;48.138;11.538;2022-08-16T14:47:47;31.71;23.58
69731;SHT31;56996;48.138;11.538;2022-08-16T14:50:16;31.61;23.79
69731;SHT31;56996;48.138;11.538;2022-08-16T14:52:53;31.66;23.75
69731;SHT31;56996;48.138;11.538;2022-08-16T14:55:26;31.65;23.91
69731;SHT31;56996;48.138;11.538;2022-08-16T14:57:55;31.62;23.90
69731;SHT31;56996;48.138;11.538;2022-08-16T15:00:24;31.60;23.87
69731;SHT31;56996;48.138;11.538;2022-08-16T15:03:03;31.58;23.93
69731;SHT31;56996;48.138;11.538;2022-08-16T15:05:35;31.51;23.99
69731;SHT31;56996;48.138;11.538;2022-08-16T15:08:04;31.51;24.16
69731;SHT31;56996;48.138;11.538;2022-08-16T15:10:32;31.38;24.23
69731;SHT31;56996;48.138;11.538;2022-08-16T15:13:05;31.35;24.14
69731;SHT31;56996;48.138;11.538;2022-08-16T15:15:35;31.30;24.39
69731;SHT31;56996;48.138;11.538;2022-08-16T15:18:03;31.26;24.57
69731;SHT31;56996;48.138;11.538;2022-08-16T15:20:35;31.33;24.70
69731;SHT31;56996;48.138;11.538;2022-08-16T15:23:05;31.46;24.55
69731;SHT31;56996;48.138;11.538;2022-08-16T15:25:42;31.58;24.45
69731;SHT31;56996;48.138;11.538;2022-08-16T15:28:28;31.50;24.83
69731;SHT31;56996;48.138;11.538;2022-08-16T15:30:58;31.25;25.47
69731;SHT31;56996;48.138;11.538;2022-08-16T15:33:30;31.07;25.74
69731;SHT31;56996;48.138;11.538;2022-08-16T15:36:09;31.05;26.08
69731;SHT31;56996;48.138;11.538;2022-08-16T15:38:50;31.07;25.44
69731;SHT31;56996;48.138;11.538;2022-08-16T15:44:10;31.01;24.69
69731;SHT31;56996;48.138;11.538;2022-08-16T15:46:48;30.93;24.68
69731;SHT31;56996;48.138;11.538;2022-08-16T15:49:27;30.71;25.09
69731;SHT31;56996;48.138;11.538;2022-08-16T15:52:19;30.60;25.86
69731;SHT31;56996;48.138;11.538;2022-08-16T15:54:56;30.60;26.36
69731;SHT31;56996;48.138;11.538;2022-08-16T15:57:55;30.61;26.56
69731;SHT31;56996;48.138;11.538;2022-08-16T16:00:23;30.64;26.58
69731;SHT31;56996;48.138;11.538;2022-08-16T16:03:05;30.49;26.47
69731;SHT31;56996;48.138;11.538;2022-08-16T16:05:39;30.34;26.79
69731;SHT31;56996;48.138;11.538;2022-08-16T16:08:10;30.19;26.90
69731;SHT31;56996;48.138;11.538;2022-08-16T16:10:50;30.00;27.10
69731;SHT31;56996;48.138;11.538;2022-08-16T16:13:20;29.78;27.29
69731;SHT31;56996;48.138;11.538;2022-08-16T16:15:49;29.76;27.29
69731;SHT31;56996;48.138;11.538;2022-08-16T16:18:19;29.76;27.32
69731;SHT31;56996;48.138;11.538;2022-08-16T16:20:48;29.73;27.43
69731;SHT31;56996;48.138;11.538;2022-08-16T16:23:20;29.70;27.80
69731;SHT31;56996;48.138;11.538;2022-08-16T16:25:51;29.65;27.87
69731;SHT31;56996;48.138;11.538;2022-08-16T16:28:21;29.57;28.11
69731;SHT31;56996;48.138;11.538;2022-08-16T16:31:11;29.42;28.15
69731;SHT31;56996;48.138;11.538;2022-08-16T16:33:42;29.36;28.25
69731;SHT31;56996;48.138;11.538;2022-08-16T16:36:16;29.33;28.42